ADDS TAF Board (Experimental) INFO Settings
IDs: Format: Expanded Condensed

KSTL - St Louis/Lambert Int, MO, US

Issued at 1725 UTC 04 Aug 2015
Updated at: 1752 UTC 04 Aug 2015
Time1651Z 04/18Z 04/19Z 04/20Z 04/21Z 04/22Z 04/23Z 05/00Z 05/01Z 05/02Z 05/03Z 05/04Z 05/05Z 05/06Z
Type OBS PRVL PRVL PRVL PRVL PRVL PRVL PRVL PRVL PRVL PRVL PRVL PRVL PRVL
VIS 10 >6 >6 >6 >6 >6 >6 >6 >6 >6 >6 >6 >6 >6
CIG 250 250 250 250 250 250 250 250 250 250 250 250 250 250
Cover BKN BKN BKN BKN BKN BKN BKN BKN BKN BKN BKN BKN BKN BKN
FltCat VFR VFR VFR VFR VFR VFR VFR VFR VFR VFR VFR VFR VFR VFR
WX -- -- -- VCTS VCTS VCTS VCTS VCTS -- -- -- -- -- --
WDir VRB VRB VRB VRB VRB VRB VRB VRB 120 120 120 120 120 120
WSpd 3 4 4 4 4 4 4 4 5 5 5 5 5 5
WGst -- -- -- -- -- -- -- -- -- -- -- -- -- --
R06/24
XWnd VRB VRB VRB VRB VRB VRB VRB VRB -4 -4 -4 -4 -4 -4
HWnd VRB VRB VRB VRB VRB VRB VRB VRB 3 3 3 3 3 3
R11/29
XWnd VRB VRB VRB VRB VRB VRB VRB VRB 0 0 0 0 0 0
HWnd VRB VRB VRB VRB VRB VRB VRB VRB 5 5 5 5 5 5
R12/30
XWnd VRB VRB VRB VRB VRB VRB VRB VRB 0 0 0 0 0 0
HWnd VRB VRB VRB VRB VRB VRB VRB VRB 5 5 5 5 5 5

NOTE: TEMPO conditions in [brackets]. Keep in mind TEMPO conditions might be better (lower impact) than prevailing conditions.

Raw TAF
KSTL 041725Z 0418/0524 VRB04KT P6SM FEW050 BKN250
  FM042000 VRB04KT P6SM VCTS SCT040CB BKN250
  FM050100 12005KT P6SM SCT070 BKN250
  FM050800 10005KT 6SM SHRA OVC040
  FM051400 11005KT 6SM SHRA VCTS OVC040CB


Raw METAR
KSTL 041651Z VRB03KT 10SM FEW150 BKN250 31/19 A2999 RMK AO2 SLP143 T03060194
KSTL 041551Z 16009KT 10SM FEW150 BKN250 29/19 A2999 RMK AO2 SLP141 T02940194
KSTL 041451Z 00000KT 10SM FEW065 SCT150 BKN250 27/19 A3000 RMK AO2 SLP145 T02720189 50004

METAR Board
Radar Display
Forecast Discussion

TAF Board Legend

Potential Impact
Threat None Slight Moderate High
Visibility (sm) ≥5.1 5.1>X≥3 3>X≥1 <1
Ceiling (100 ft) ≥30.1 30.1>X≥10 10>X≥5 <5
Wind Speed (kt) <10 10≤X<20 20≤X<30 ≥30
Wind Gust (kt) <15 15≤X<25 25≤X<35 ≥35
Weather No Wx Reported VCTS,-TS,-FZRA,SN TS,FZRA +TS,+FZRA,+SN